Time;durP1;ratioP1;P1;durP2;ratioP2;P2;SDS_P1;SDS_P2;PMS_P1;PMS_P2;Temp;Humidity;BMP_temperature;BMP_pressure;BME280_temperature;BME280_humidity;BME280_pressure;Samples;Min_cycle;Max_cycle;Signal;HPM_P1;HPM_P2
2021/03/09 04:18:50;;;;;;;;;;;7.80;99.90;;;7.20;100.00;100729.75;5127473;27;20425;-64
2021/03/09 04:21:18;;;;;;;;;;;7.70;99.90;;;7.07;100.00;100733.78;5134517;27;19931;-63
2021/03/09 04:23:45;;;;;;;;;;;7.60;99.90;;;7.01;100.00;100728.66;5133872;27;19923;-63
2021/03/09 04:26:13;;;;;;;;;;;7.50;99.90;;;6.85;100.00;100727.03;5134633;27;19924;-63
2021/03/09 04:28:41;;;;;;;;;;;7.40;99.90;;;6.78;100.00;100731.88;5134628;27;19923;-63
2021/03/09 04:31:08;;;;;;;;;;;7.30;99.90;;;6.72;100.00;100733.72;5134440;27;19927;-63
2021/03/09 04:33:36;;;;;;;;;;;7.20;99.90;;;6.73;100.00;100729.97;5135142;27;19927;-63
2021/03/09 04:36:06;;;;;;;;;;;7.20;99.90;;;6.73;100.00;100735.34;5135535;27;20379;-63
2021/03/09 04:38:34;;;;;;;;;;;7.20;99.90;;;6.74;100.00;100733.47;5134768;27;19927;-63
2021/03/09 04:41:02;;;;;;;;;;;7.20;99.90;;;6.75;100.00;100738.56;5133907;27;20014;-63
2021/03/09 04:43:29;;;;;;;;;;;7.30;99.90;;;6.79;100.00;100744.22;5134604;27;19930;-63
2021/03/09 04:45:57;;;;;;;;;;;7.30;99.90;;;6.80;100.00;100749.34;5134016;27;19923;-63
2021/03/09 04:48:25;;;;;;;;;;;7.30;99.90;;;6.86;100.00;100750.16;5133356;27;19924;-63
2021/03/09 04:50:52;;;;;;;;;;;7.30;99.90;;;6.86;100.00;100750.97;5133967;27;19976;-63
2021/03/09 04:53:24;;;;;;;;;;;7.40;99.90;;;6.90;100.00;100759.31;5133814;27;19927;-63
2021/03/09 04:55:51;;;;;;;;;;;7.40;99.90;;;6.91;100.00;100759.03;5130994;27;20405;-63
2021/03/09 04:58:18;;;;;;;;;;;7.40;99.90;;;6.88;100.00;100770.31;5133684;28;20288;-62
2021/03/09 05:00:45;;;;;;;;;;;;;;;6.71;100.00;100761.69;5134445;28;19931;-62
2021/03/09 05:03:13;;;;;;;;;;;7.30;99.90;;;6.67;100.00;100759.78;5134039;28;19924;-62
2021/03/09 05:05:40;;;;;;;;;;;7.20;99.90;;;6.70;100.00;100765.44;5134183;28;19923;-63
2021/03/09 05:08:08;;;;;;;;;;;7.30;99.90;;;6.75;100.00;100770.03;5133446;28;19962;-62
2021/03/09 05:10:36;;;;;;;;;;;7.30;99.90;;;6.66;100.00;100769.72;5134214;28;20372;-62
2021/03/09 05:13:05;;;;;;;;;;;7.30;99.90;;;6.62;100.00;100778.59;5122112;28;20406;-62
2021/03/09 05:15:32;;;;;;;;;;;7.20;99.90;;;6.54;100.00;100774.53;5113348;28;19924;-62
2021/03/09 05:18:01;;;;;;;;;;;7.20;99.90;;;6.48;100.00;100775.56;5113295;28;20365;-62
2021/03/09 05:20:29;;;;;;;;;;;7.10;99.90;;;6.45;100.00;100774.22;5113717;28;19924;-62
2021/03/09 05:22:56;;;;;;;;;;;7.10;99.90;;;6.41;100.00;100775.81;5113617;28;20392;-63
2021/03/09 05:25:23;;;;;;;;;;;7.00;99.90;;;6.48;100.00;100775.56;5112870;28;19931;-63
2021/03/09 05:27:52;;;;;;;;;;;7.10;99.90;;;6.49;100.00;100775.31;5113288;28;19927;-63
2021/03/09 05:30:22;;;;;;;;;;;7.10;99.90;;;6.38;100.00;100781.72;5113310;28;19945;-63
2021/03/09 05:32:49;;;;;;;;;;;7.00;99.90;;;6.31;100.00;100786.53;5113920;28;19976;-63
2021/03/09 05:35:17;;;;;;;;;;;6.90;99.90;;;6.15;100.00;100786.72;5112481;28;20391;-63
2021/03/09 05:37:46;;;;;;;;;;;6.80;99.90;;;6.04;100.00;100799.28;5113108;28;19928;-63
2021/03/09 05:40:15;;;;;;;;;;;6.70;99.90;;;6.01;100.00;100797.13;5113665;28;19931;-63
2021/03/09 05:42:47;;;;;;;;;;;6.70;99.90;;;6.00;100.00;100800.88;5113938;28;19974;-63
2021/03/09 05:45:16;;;;;;;;;;;6.60;99.90;;;6.00;100.00;100803.56;5112912;28;19931;-63
2021/03/09 05:47:43;;;;;;;;;;;6.60;99.90;;;5.94;100.00;100804.59;5112190;28;20293;-63
2021/03/09 05:50:12;;;;;;;;;;;6.60;99.90;;;5.96;100.00;100807.81;5113106;28;19928;-63
2021/03/09 05:52:40;;;;;;;;;;;6.60;99.90;;;5.96;100.00;100797.88;5104700;28;19931;-63
2021/03/09 05:55:09;;;;;;;;;;;6.60;99.90;;;6.01;100.00;100797.94;5112015;28;19927;-63
2021/03/09 05:57:37;;;;;;;;;;;6.70;99.90;;;6.16;100.00;100793.72;5115979;28;19924;-62
2021/03/09 06:00:06;;;;;;;;;;;6.80;99.90;;;6.36;100.00;100793.78;5116921;28;19951;-63
2021/03/09 06:02:34;;;;;;;;;;;6.90;99.90;;;6.37;100.00;100796.22;5117092;28;19992;-63
2021/03/09 06:05:03;;;;;;;;;;;7.00;99.90;;;6.44;100.00;100798.69;5115531;28;19932;-63
2021/03/09 06:07:31;;;;;;;;;;;7.10;99.90;;;6.54;100.00;100796.00;5115877;28;19949;-63
2021/03/09 06:09:58;;;;;;;;;;;7.10;99.90;;;6.54;100.00;100794.13;5116801;28;19969;-63
2021/03/09 06:12:26;;;;;;;;;;;7.20;99.90;;;6.62;100.00;100802.78;5116827;28;19924;-63
2021/03/09 06:15:02;;;;;;;;;;;7.20;99.90;;;6.68;100.00;100809.78;5116691;28;19934;-63
2021/03/09 06:17:30;;;;;;;;;;;7.20;99.90;;;6.77;100.00;100802.81;5115962;28;19931;-63
2021/03/09 06:19:59;;;;;;;;;;;7.30;99.90;;;6.65;100.00;100800.38;5116688;28;19924;-63
2021/03/09 06:22:39;;;;;;;;;;;7.20;99.90;;;6.50;100.00;100814.56;5116598;28;19924;-63
2021/03/09 06:25:08;;;;;;;;;;;7.10;99.90;;;6.54;100.00;100822.88;5115758;28;20371;-64
2021/03/09 06:27:35;;;;;;;;;;;7.10;99.90;;;6.59;100.00;100822.91;5115454;28;19928;-63
2021/03/09 06:30:05;;;;;;;;;;;7.20;99.90;;;6.70;100.00;100821.06;5116704;28;19977;-63
2021/03/09 06:32:40;;;;;;;;;;;7.20;99.90;;;6.79;100.00;100832.91;5116985;28;19924;-63
2021/03/09 06:35:26;;;;;;;;;;;7.30;99.90;;;6.81;100.00;100845.00;5115916;28;19924;-63
2021/03/09 06:37:54;;;;;;;;;;;7.30;99.90;;;6.76;100.00;100845.00;5115300;28;19931;-63
2021/03/09 06:40:21;;;;;;;;;;;7.30;99.90;;;6.71;100.00;100852.25;5116015;28;20388;-63
2021/03/09 06:42:49;;;;;;;;;;;7.30;99.90;;;6.59;100.00;100847.91;5115659;28;20361;-63
2021/03/09 06:45:21;;;;;;;;;;;7.20;99.90;;;6.73;100.00;100844.72;5115217;28;20289;-63
2021/03/09 06:47:49;;;;;;;;;;;7.30;99.90;;;6.69;100.00;100860.56;5114760;28;20281;-63
2021/03/09 06:50:19;;;;;;;;;;;7.30;99.90;;;6.65;100.00;100861.34;5116058;28;19928;-63
2021/03/09 06:53:00;;;;;;;;;;;7.30;99.90;;;6.69;100.00;100863.25;5116144;28;20345;-62
2021/03/09 06:55:28;;;;;;;;;;;7.30;99.90;;;6.83;100.00;100864.38;5115798;28;19924;-63
2021/03/09 06:58:04;;;;;;;;;;;7.40;99.90;;;6.95;100.00;100872.22;5114603;28;19924;-63
2021/03/09 07:00:31;;;;;;;;;;;7.50;99.90;;;6.99;100.00;100865.25;5116032;28;19962;-62
2021/03/09 07:02:58;;;;;;;;;;;7.60;99.90;;;7.12;100.00;100868.22;5115809;28;19989;-62
2021/03/09 07:05:27;;;;;;;;;;;7.70;99.90;;;7.28;100.00;100868.25;5115883;28;19931;-62
2021/03/09 07:07:54;;;;;;;;;;;7.90;99.90;;;7.44;100.00;100876.09;5115466;28;19923;-62
2021/03/09 07:10:22;;;;;;;;;;;8.00;99.90;;;7.52;100.00;100880.94;5116657;28;19950;-63
2021/03/09 07:12:51;;;;;;;;;;;8.10;99.90;;;7.64;100.00;100889.56;5115932;28;19924;-62
2021/03/09 07:15:20;;;;;;;;;;;8.10;99.90;;;7.85;100.00;100879.59;5115942;28;19923;-63
2021/03/09 07:17:51;;;;;;;;;;;8.30;99.90;;;8.22;100.00;100871.19;5115932;28;19992;-63
2021/03/09 07:20:19;;;;;;;;;;;8.50;99.90;;;8.36;100.00;100885.72;5116353;28;20002;-63
2021/03/09 07:22:47;;;;;;;;;;;8.60;99.90;;;8.19;100.00;100887.91;5116281;28;19931;-63
2021/03/09 07:25:16;;;;;;;;;;;8.60;99.90;;;8.16;100.00;100889.25;5115146;28;20373;-63
2021/03/09 07:27:51;;;;;;;;;;;8.60;99.90;;;8.06;100.00;100899.22;5115394;28;19924;-63
2021/03/09 07:30:20;;;;;;;;;;;8.50;99.90;;;7.94;100.00;100904.91;5116819;28;19928;-63
2021/03/09 07:32:49;;;;;;;;;;;8.50;99.90;;;7.89;100.00;100910.28;5116125;28;19924;-63
2021/03/09 07:35:17;;;;;;;;;;;8.50;99.90;;;7.91;100.00;100915.38;5115281;28;20296;-63
2021/03/09 07:37:45;;;;;;;;;;;8.50;99.90;;;7.96;100.00;100918.91;5114936;28;19931;-63
2021/03/09 07:40:15;;;;;;;;;;;8.50;99.90;;;8.24;100.00;100928.28;5116407;28;19924;-63
2021/03/09 07:42:42;;;;;;;;;;;8.90;99.90;;;8.70;100.00;100926.34;5113947;28;19924;-63
2021/03/09 07:45:11;;;;;;;;;;;9.30;99.90;;;9.32;100.00;100929.31;5114244;28;19992;-63
2021/03/09 07:47:44;;;;;;;;;;;9.80;99.90;;;9.59;100.00;100923.47;5114660;28;19945;-63
2021/03/09 07:50:14;;;;;;;;;;;10.10;99.90;;;9.80;100.00;100929.53;5115504;28;19946;-63
2021/03/09 07:53:06;;;;;;;;;;;10.30;99.90;;;10.10;100.00;100933.88;5113194;28;20377;-64
2021/03/09 07:55:36;;;;;;;;;;;10.80;99.90;;;10.43;100.00;100931.16;5113658;28;19935;-62
2021/03/09 07:58:23;;;;;;;;;;;10.80;99.90;;;10.67;95.16;100933.88;5112575;28;19930;-62
2021/03/09 08:00:57;;;;;;;;;;;10.90;99.90;;;10.89;93.68;100931.47;5114143;28;20022;-62
2021/03/09 08:03:26;;;;;;;;;;;11.30;99.90;;;11.22;93.14;100928.88;5114008;28;19928;-63
2021/03/09 08:05:57;;;;;;;;;;;11.30;99.90;;;11.51;93.28;100933.09;5092702;28;20511;-62
2021/03/09 08:08:45;;;;;;;;;;;11.70;99.90;;;11.74;90.13;100931.41;5092959;28;19956;-63
2021/03/09 08:11:39;;;;;;;;;;;11.90;99.90;;;12.00;88.74;100938.06;5093751;28;19932;-63
2021/03/09 08:14:26;;;;;;;;;;;12.00;99.90;;;12.37;85.54;100933.63;5093585;28;20274;-63
2021/03/09 08:16:53;;;;;;;;;;;12.30;99.90;;;12.60;84.78;100938.06;5093253;28;20027;-63
2021/03/09 08:19:47;;;;;;;;;;;12.50;99.90;;;12.77;83.60;100941.00;5093715;28;19928;-62
2021/03/09 08:22:15;;;;;;;;;;;12.60;99.90;;;12.85;82.49;100939.50;5046562;28;19928;-63
2021/03/09 08:24:58;;;;;;;;;;;12.80;99.90;;;12.90;82.11;100951.06;5093531;28;19925;-63
2021/03/09 08:27:37;;;;;;;;;;;13.00;99.90;;;12.99;81.80;100949.25;5092964;28;19924;-63
2021/03/09 08:30:37;;;;;;;;;;;13.00;99.90;;;13.11;81.56;100941.41;5093632;28;19924;-63
2021/03/09 08:33:32;;;;;;;;;;;13.20;99.90;;;13.28;80.68;100948.16;5087912;28;19924;-63
2021/03/09 08:36:00;;;;;;;;;;;13.40;99.90;;;13.42;81.04;100954.34;5092978;28;19953;-63
2021/03/09 08:38:27;;;;;;;;;;;13.40;99.90;;;13.56;80.90;100952.38;5093462;28;19978;-62
2021/03/09 08:41:18;;;;;;;;;;;13.60;99.90;;;13.55;78.72;100951.63;5093818;28;19931;-63
2021/03/09 08:43:47;;;;;;;;;;;;;;;13.66;78.85;100954.88;5093761;28;19924;-63
2021/03/09 08:46:14;;;;;;;;;;;13.80;99.90;;;13.77;76.91;100952.75;5089704;28;19925;-63
2021/03/09 08:48:55;;;;;;;;;;;13.90;99.90;;;13.93;76.60;100959.41;5093003;28;19924;-63
2021/03/09 08:51:50;;;;;;;;;;;14.00;99.90;;;14.06;75.89;100953.13;5088083;28;20317;-62
2021/03/09 08:54:36;;;;;;;;;;;14.20;99.90;;;14.19;75.36;100952.25;5092836;28;20045;-63
2021/03/09 08:57:09;;;;;;;;;;;14.20;99.90;;;14.37;74.30;100958.63;5079998;28;19928;-63
2021/03/09 08:59:39;;;;;;;;;;;14.40;99.90;;;14.42;75.74;100961.22;5092946;28;19924;-63
2021/03/09 09:02:09;;;;;;;;;;;14.50;99.90;;;14.38;75.52;100955.59;5093014;28;20293;-63
2021/03/09 09:04:37;;;;;;;;;;;14.60;99.90;;;14.04;75.38;100960.78;5092513;28;19931;-63
2021/03/09 09:07:21;;;;;;;;;;;14.60;99.90;;;13.91;75.28;100967.91;5092198;28;19924;-65
2021/03/09 09:09:49;;;;;;;;;;;14.40;99.90;;;14.15;75.58;100978.47;5093093;28;19932;-63
2021/03/09 09:12:22;;;;;;;;;;;14.40;99.90;;;14.30;75.31;100978.06;5093207;28;19924;-63
2021/03/09 09:15:08;;;;;;;;;;;14.50;99.90;;;14.45;74.78;100972.28;5093189;28;19977;-64
2021/03/09 09:17:36;;;;;;;;;;;;;;;14.65;73.45;100976.41;5093018;28;19928;-62
2021/03/09 09:20:06;;;;;;;;;;;14.80;99.90;;;14.70;71.80;100978.97;5092818;28;19931;-63
2021/03/09 09:22:34;;;;;;;;;;;14.90;99.90;;;14.86;72.46;100974.72;5093461;28;20313;-64
2021/03/09 09:25:03;;;;;;;;;;;14.90;99.90;;;14.92;72.62;100981.66;5092611;28;19946;-65
2021/03/09 09:27:39;;;;;;;;;;;15.10;99.90;;;15.06;71.09;100976.88;5092556;28;19931;-63
2021/03/09 09:30:09;;;;;;;;;;;15.30;99.90;;;15.05;70.37;100979.91;5092654;28;19925;-63
2021/03/09 09:32:54;;;;;;;;;;;15.30;99.90;;;15.14;70.21;100976.09;5096961;28;19931;-63
2021/03/09 09:35:23;;;;;;;;;;;;;;;15.15;69.23;100982.34;5096163;28;19924;-64
2021/03/09 09:37:56;;;;;;;;;;;15.30;99.90;;;15.23;70.28;100981.56;5096025;28;19935;-62
2021/03/09 09:40:27;;;;;;;;;;;15.50;99.90;;;15.33;68.84;100984.00;5116292;28;19931;-63
2021/03/09 09:42:57;;;;;;;;;;;15.50;99.90;;;15.47;67.93;100978.44;5117438;28;20452;-63
2021/03/09 09:45:25;;;;;;;;;;;15.60;99.90;;;15.55;66.47;100977.66;5116114;28;20266;-63
2021/03/09 09:47:53;;;;;;;;;;;15.80;99.90;;;15.56;65.20;100982.00;5116184;28;19927;-62
2021/03/09 09:50:22;;;;;;;;;;;15.80;99.90;;;15.53;65.65;100990.81;5116753;28;19935;-62
2021/03/09 09:52:57;;;;;;;;;;;15.70;99.90;;;15.57;66.49;100986.31;5117130;28;19943;-65
2021/03/09 09:55:28;;;;;;;;;;;15.80;99.90;;;15.56;63.05;100974.63;5115985;28;19924;-63
2021/03/09 09:57:56;;;;;;;;;;;15.80;99.90;;;15.61;66.17;100984.56;5116246;28;19939;-63
2021/03/09 10:00:27;;;;;;;;;;;15.90;99.90;;;15.67;65.98;100980.56;5116821;28;19924;-64
2021/03/09 10:03:14;;;;;;;;;;;16.00;99.90;;;15.81;65.08;100986.66;5116671;28;20424;-63
2021/03/09 10:05:42;;;;;;;;;;;16.10;99.90;;;15.98;65.28;100986.66;5115945;28;20308;-64
2021/03/09 10:08:10;;;;;;;;;;;16.10;99.90;;;16.02;63.62;100981.38;5116357;28;20369;-63
2021/03/09 10:10:40;;;;;;;;;;;16.30;99.90;;;16.00;61.38;100980.88;5116757;28;19931;-63
2021/03/09 10:13:20;;;;;;;;;;;16.20;99.90;;;15.92;61.62;100987.94;5117066;28;19968;-63
2021/03/09 10:15:49;;;;;;;;;;;16.20;99.90;;;15.88;61.49;100989.72;5115727;28;19928;-63
2021/03/09 10:18:23;;;;;;;;;;;16.20;99.90;;;15.92;62.19;100987.94;5116196;28;19923;-64
2021/03/09 10:21:06;;;;;;;;;;;16.20;99.90;;;16.17;65.16;100987.13;5116690;28;19923;-62
2021/03/09 10:23:35;;;;;;;;;;;16.30;99.90;;;16.15;67.29;100988.56;5116647;28;20057;-63
2021/03/09 10:26:04;;;;;;;;;;;16.50;99.90;;;16.02;69.03;100984.09;5116328;28;19920;-63
2021/03/09 10:28:32;;;;;;;;;;;16.40;99.90;;;16.11;70.08;100984.91;5116495;28;19927;-63
2021/03/09 10:31:13;;;;;;;;;;;16.50;99.90;;;16.26;66.78;100987.13;5116173;28;20354;-65
2021/03/09 10:33:41;;;;;;;;;;;16.70;99.90;;;16.19;68.20;100990.34;5115891;28;20018;-63
2021/03/09 10:36:10;;;;;;;;;;;16.60;99.90;;;16.13;68.96;100988.91;5115689;28;19924;-65
2021/03/09 10:38:37;;;;;;;;;;;16.60;99.90;;;16.12;68.91;100992.75;5115561;28;19931;-64
2021/03/09 10:41:05;;;;;;;;;;;16.60;99.90;;;16.13;68.62;100991.63;5116486;28;20365;-64
2021/03/09 10:43:39;;;;;;;;;;;16.50;99.90;;;16.21;67.89;100990.81;5115986;28;19927;-64
2021/03/09 10:46:08;;;;;;;;;;;16.70;99.90;;;16.22;67.98;100992.41;5115490;28;19930;-64
2021/03/09 10:48:36;;;;;;;;;;;16.60;99.90;;;16.30;67.88;100999.78;5116328;28;19957;-64
2021/03/09 10:51:03;;;;;;;;;;;16.80;99.90;;;16.38;66.43;100996.22;5116575;28;20348;-65
2021/03/09 10:53:30;;;;;;;;;;;16.90;99.90;;;16.50;67.41;100981.13;5117036;28;19924;-64
2021/03/09 10:55:58;;;;;;;;;;;16.90;99.90;;;16.53;64.70;100986.75;5115724;28;20146;-64
2021/03/09 10:58:25;;;;;;;;;;;17.10;99.90;;;16.39;65.69;100977.94;5116725;28;20365;-64
2021/03/09 11:00:53;;;;;;;;;;;17.00;99.90;;;16.33;65.41;100984.69;5115606;28;19924;-64
2021/03/09 11:03:21;;;;;;;;;;;16.80;99.90;;;16.33;65.01;100990.94;5116436;28;20023;-64
2021/03/09 11:05:49;;;;;;;;;;;16.80;99.90;;;16.45;66.33;100984.81;5114914;28;19924;-64
2021/03/09 11:08:17;;;;;;;;;;;16.90;99.90;;;16.42;65.75;100980.00;5116008;28;20288;-64
2021/03/09 11:10:44;;;;;;;;;;;16.90;99.90;;;16.45;67.16;100984.00;5116612;28;19924;-64
2021/03/09 11:13:13;;;;;;;;;;;17.00;99.90;;;16.61;64.92;100982.41;5116940;28;20262;-63
2021/03/09 11:15:40;;;;;;;;;;;17.10;99.90;;;16.64;62.66;100982.56;5116294;28;20349;-62
2021/03/09 11:18:07;;;;;;;;;;;17.10;99.90;;;16.70;62.59;100980.44;5116001;28;19924;-63
2021/03/09 11:20:36;;;;;;;;;;;17.10;99.90;;;16.92;62.50;100982.94;5116802;28;19934;-64
2021/03/09 11:23:03;;;;;;;;;;;17.30;99.90;;;16.81;60.80;100976.25;5117216;28;19935;-63
2021/03/09 11:25:30;;;;;;;;;;;17.20;99.90;;;16.82;61.89;100966.91;5115236;28;19925;-63
2021/03/09 11:27:58;;;;;;;;;;;17.30;99.90;;;16.70;61.45;100969.53;5115810;28;19923;-64
2021/03/09 11:30:26;;;;;;;;;;;17.20;99.90;;;16.83;61.79;100973.97;5116426;28;19923;-62
2021/03/09 11:32:53;;;;;;;;;;;17.30;99.90;;;16.82;62.22;100975.09;5116347;28;19924;-62
2021/03/09 11:35:20;;;;;;;;;;;17.30;99.90;;;16.72;62.74;100967.25;5115138;28;19936;-65
2021/03/09 11:37:49;;;;;;;;;;;17.20;99.90;;;16.73;62.30;100971.59;5114951;28;20365;-64
2021/03/09 11:40:16;;;;;;;;;;;17.20;99.90;;;16.61;60.17;100974.22;5115682;28;19931;-65
2021/03/09 11:42:43;;;;;;;;;;;17.20;99.90;;;16.52;61.63;100973.41;5115823;28;19931;-65
2021/03/09 11:45:11;;;;;;;;;;;17.00;99.90;;;16.56;64.16;100977.94;5115370;28;20450;-64
2021/03/09 11:47:38;;;;;;;;;;;17.10;99.90;;;16.49;63.58;100979.53;5115060;28;19923;-64
2021/03/09 11:50:07;;;;;;;;;;;17.00;99.90;;;16.39;63.33;100980.66;5115656;28;19923;-65
2021/03/09 11:52:34;;;;;;;;;;;16.90;99.90;;;16.33;65.19;100982.75;5115755;28;19928;-64
2021/03/09 11:55:03;;;;;;;;;;;16.90;99.90;;;16.32;64.78;100981.16;5114666;28;20070;-64
2021/03/09 11:57:30;;;;;;;;;;;16.90;99.90;;;16.36;63.54;100984.84;5115228;28;19975;-64
2021/03/09 11:59:57;;;;;;;;;;;16.90;99.90;;;16.41;65.97;100978.44;5115749;28;19970;-64
2021/03/09 12:02:24;;;;;;;;;;;16.90;99.90;;;16.38;64.70;100979.84;5115112;28;20516;-64
2021/03/09 12:04:51;;;;;;;;;;;16.80;99.90;;;16.54;62.20;100973.88;5114117;28;20285;-64
2021/03/09 12:07:19;;;;;;;;;;;17.00;99.90;;;16.40;62.94;100971.34;5114046;28;20442;-64
2021/03/09 12:09:47;;;;;;;;;;;16.90;99.90;;;16.32;61.82;100975.69;5114688;28;19954;-64
2021/03/09 12:12:15;;;;;;;;;;;16.90;99.90;;;16.25;62.42;100978.13;5114400;28;19923;-64
2021/03/09 12:14:42;;;;;;;;;;;16.80;99.90;;;16.06;59.41;100977.66;5114173;28;19931;-63
2021/03/09 12:17:09;;;;;;;;;;;16.60;99.90;;;15.96;63.45;100977.97;5113124;28;19927;-63
2021/03/09 12:19:36;;;;;;;;;;;16.50;99.90;;;15.96;64.48;100977.97;5096695;28;20404;-63
2021/03/09 12:22:04;;;;;;;;;;;16.50;99.90;;;16.16;64.66;100977.34;5094308;28;20369;-62
2021/03/09 12:24:31;;;;;;;;;;;16.60;99.90;;;16.26;63.22;100981.66;5093623;28;19924;-63
2021/03/09 12:27:00;;;;;;;;;;;16.70;99.90;;;16.12;64.46;100978.28;5092640;28;19969;-63
2021/03/09 12:29:28;;;;;;;;;;;16.70;99.90;;;16.09;64.36;100984.41;5094193;28;20289;-64
2021/03/09 12:31:55;;;;;;;;;;;16.60;99.90;;;16.24;63.92;100978.44;5093917;28;20393;-65
2021/03/09 12:34:22;;;;;;;;;;;16.70;99.90;;;16.28;64.78;100985.66;5094188;28;19978;-62
2021/03/09 12:36:50;;;;;;;;;;;16.80;99.90;;;16.38;63.24;100965.44;5092506;28;19928;-63
2021/03/09 12:39:17;;;;;;;;;;;16.90;99.90;;;16.22;63.41;100969.78;5094439;28;20285;-63
2021/03/09 12:41:44;;;;;;;;;;;16.80;99.90;;;16.20;64.43;100964.63;5094040;28;19928;-62
2021/03/09 12:44:12;;;;;;;;;;;16.70;99.90;;;16.35;65.54;100963.34;5093585;28;20444;-63
2021/03/09 12:46:40;;;;;;;;;;;16.90;99.90;;;16.49;63.28;100965.88;5092699;28;19932;-62
2021/03/09 12:49:08;;;;;;;;;;;17.00;99.90;;;16.70;62.88;100958.59;5094250;28;19924;-63
2021/03/09 12:51:35;;;;;;;;;;;17.20;99.90;;;16.52;62.77;100957.03;5094343;28;19948;-63
2021/03/09 12:54:02;;;;;;;;;;;17.00;99.90;;;16.56;64.94;100949.84;5093986;28;19924;-64
2021/03/09 12:56:30;;;;;;;;;;;17.10;99.90;;;16.45;61.88;100943.06;5093315;28;19932;-63
2021/03/09 12:58:57;;;;;;;;;;;17.00;99.90;;;16.35;61.93;100947.75;5093997;28;19935;-63
2021/03/09 13:01:24;;;;;;;;;;;16.90;99.90;;;16.41;61.97;100938.25;5093966;28;19978;-63
2021/03/09 13:03:53;;;;;;;;;;;16.90;99.90;;;16.39;63.01;100939.72;5092845;28;19924;-64
2021/03/09 13:06:20;;;;;;;;;;;16.90;99.90;;;16.35;59.52;100931.38;5099316;28;20397;-62
2021/03/09 13:08:47;;;;;;;;;;;16.80;99.90;;;16.37;59.91;100936.53;5100273;28;20026;-62
2021/03/09 13:11:15;;;;;;;;;;;16.80;99.90;;;16.45;61.85;100929.44;5100618;28;19928;-63
2021/03/09 13:13:42;;;;;;;;;;;16.90;99.90;;;16.50;61.98;100929.28;5100859;28;19925;-63
2021/03/09 13:16:10;;;;;;;;;;;17.00;99.90;;;16.52;60.73;100933.28;5099930;28;19928;-62
2021/03/09 13:18:37;;;;;;;;;;;17.00;99.90;;;16.60;60.67;100937.09;5101042;28;20369;-63
2021/03/09 13:21:05;;;;;;;;;;;17.10;99.90;;;16.84;58.67;100934.63;5100909;28;19963;-63
2021/03/09 13:23:33;;;;;;;;;;;17.20;99.90;;;17.07;58.35;100930.47;5100624;28;20258;-63
2021/03/09 13:26:01;;;;;;;;;;;17.40;99.90;;;17.21;59.77;100920.09;5100221;28;19989;-64
2021/03/09 13:28:28;;;;;;;;;;;17.50;99.90;;;17.31;60.25;100921.63;5100613;28;19924;-62
2021/03/09 13:30:55;;;;;;;;;;;17.70;99.90;;;17.40;57.44;100923.19;5100833;28;19939;-64
2021/03/09 13:33:22;;;;;;;;;;;17.80;99.90;;;17.24;55.53;100913.16;5100231;28;19974;-64
2021/03/09 13:35:49;;;;;;;;;;;17.70;99.90;;;17.07;57.28;100911.34;5099863;28;19924;-63
2021/03/09 13:38:18;;;;;;;;;;;17.60;99.90;;;17.34;58.92;100910.84;5100187;28;20366;-63
2021/03/09 13:40:45;;;;;;;;;;;17.70;99.90;;;17.51;58.11;100909.13;5100856;28;19924;-63
2021/03/09 13:43:13;;;;;;;;;;;17.90;99.90;;;17.21;57.72;100897.44;5100563;28;19928;-63
2021/03/09 13:45:40;;;;;;;;;;;17.70;99.90;;;16.97;60.77;100898.06;5091552;28;19931;-64
2021/03/09 13:48:09;;;;;;;;;;;17.60;99.90;;;16.98;61.66;100896.13;5099591;28;19924;-64
2021/03/09 13:50:36;;;;;;;;;;;17.50;99.90;;;17.12;62.24;100894.75;5099680;28;19953;-64
2021/03/09 13:53:03;;;;;;;;;;;17.60;99.90;;;17.30;59.24;100887.22;5099595;28;19931;-63
2021/03/09 13:55:32;;;;;;;;;;;17.70;99.90;;;17.12;58.57;100891.22;5099510;28;19924;-63
2021/03/09 13:57:59;;;;;;;;;;;17.60;99.90;;;17.02;57.61;100883.44;5099029;28;19931;-63
2021/03/09 14:00:27;;;;;;;;;;;17.50;99.90;;;16.92;59.24;100879.16;5100378;28;19931;-62
2021/03/09 14:02:54;;;;;;;;;;;17.40;99.90;;;16.93;59.09;100880.75;5100142;28;19931;-64
2021/03/09 14:05:23;;;;;;;;;;;17.40;99.90;;;16.93;57.40;100870.59;5114591;28;19924;-63
2021/03/09 14:07:51;;;;;;;;;;;17.40;99.90;;;17.16;57.04;100867.56;5119160;27;19980;-63
2021/03/09 14:10:19;;;;;;;;;;;17.60;99.90;;;17.13;56.87;100866.31;5120268;28;20333;-62
2021/03/09 14:12:49;;;;;;;;;;;17.60;99.90;;;17.18;56.20;100852.44;5120260;28;19977;-65
2021/03/09 14:15:18;;;;;;;;;;;17.60;99.90;;;17.06;56.77;100855.09;5119438;28;19930;-64
2021/03/09 14:17:45;;;;;;;;;;;17.60;99.90;;;17.05;54.72;100852.72;5115148;28;19946;-63
2021/03/09 14:20:14;;;;;;;;;;;17.50;99.90;;;17.10;56.59;100855.25;5117498;28;20000;-64
2021/03/09 14:22:43;;;;;;;;;;;17.50;99.90;;;17.14;55.58;100848.78;5117087;28;19924;-64
2021/03/09 14:25:11;;;;;;;;;;;17.60;99.90;;;17.32;57.30;100850.25;5115428;28;20361;-62
2021/03/09 14:27:38;;;;;;;;;;;17.80;99.90;;;17.28;56.34;100849.31;5116267;28;19955;-62
2021/03/09 14:30:11;;;;;;;;;;;17.70;99.90;;;17.24;55.82;100853.84;5117286;28;19951;-62
2021/03/09 14:32:38;;;;;;;;;;;17.70;99.90;;;17.29;56.58;100842.72;5117227;28;19969;-64
2021/03/09 14:35:07;;;;;;;;;;;17.80;99.90;;;17.32;55.34;100842.06;5116476;28;19924;-64
2021/03/09 14:37:34;;;;;;;;;;;17.90;99.90;;;17.23;54.82;100846.00;5116321;28;19923;-64
2021/03/09 14:40:02;;;;;;;;;;;17.70;99.90;;;17.26;53.35;100851.59;5117082;28;19931;-63
2021/03/09 14:42:29;;;;;;;;;;;17.70;99.90;;;17.42;51.88;100841.63;5117042;28;19923;-62
2021/03/09 14:44:57;;;;;;;;;;;17.80;99.90;;;17.50;53.24;100839.97;5115921;28;19924;-62
2021/03/09 14:47:25;;;;;;;;;;;17.90;99.90;;;17.46;51.70;100845.31;5115465;28;19928;-63
2021/03/09 14:49:53;;;;;;;;;;;17.90;99.90;;;17.41;51.72;100828.31;5116221;28;19928;-62
2021/03/09 14:52:20;;;;;;;;;;;17.90;99.90;;;17.36;53.04;100840.25;5116530;28;20373;-62
2021/03/09 14:54:47;;;;;;;;;;;17.80;99.90;;;17.36;51.54;100837.50;5116446;28;19924;-64
2021/03/09 14:57:15;;;;;;;;;;;17.80;99.90;;;17.39;51.35;100846.97;5113655;28;19928;-62
2021/03/09 14:59:42;;;;;;;;;;;17.90;99.90;;;17.40;50.32;100840.38;5116630;28;19927;-62
2021/03/09 15:02:10;;;;;;;;;;;17.90;99.90;;;17.47;50.76;100827.78;5116155;28;19931;-62
2021/03/09 15:04:39;;;;;;;;;;;17.90;99.90;;;17.54;50.79;100831.91;5116065;28;19931;-63
2021/03/09 15:07:06;;;;;;;;;;;18.00;99.90;;;17.53;47.98;100835.75;5115668;28;19924;-62
2021/03/09 15:09:34;;;;;;;;;;;18.00;99.90;;;17.46;47.49;100836.31;5116523;28;19927;-63
2021/03/09 15:12:02;;;;;;;;;;;;;;;17.45;50.27;100830.03;5116363;28;19928;-63
2021/03/09 15:14:29;;;;;;;;;;;17.90;99.90;;;17.46;49.85;100828.09;5115714;28;20336;-63
2021/03/09 15:16:56;;;;;;;;;;;18.00;99.90;;;17.47;48.86;100833.25;5116018;28;20346;-63
2021/03/09 15:19:23;;;;;;;;;;;17.90;99.90;;;17.40;48.23;100827.50;5116121;28;19981;-64
2021/03/09 15:21:52;;;;;;;;;;;17.80;99.90;;;17.46;49.51;100828.91;5116314;28;19928;-64
2021/03/09 15:24:19;;;;;;;;;;;17.90;99.90;;;17.56;47.98;100833.19;5116158;28;19959;-63
2021/03/09 15:26:47;;;;;;;;;;;18.00;99.90;;;17.54;48.68;100829.19;5115252;28;19924;-62
2021/03/09 15:29:16;;;;;;;;;;;17.90;99.90;;;17.56;49.31;100824.19;5114005;28;19928;-63
2021/03/09 15:31:43;;;;;;;;;;;18.00;99.90;;;17.64;49.63;100817.81;5115555;28;19999;-62
2021/03/09 15:34:11;;;;;;;;;;;18.10;99.90;;;17.70;50.66;100830.16;5116367;28;19935;-63
2021/03/09 15:36:39;;;;;;;;;;;;;;;17.74;53.54;100823.69;5114457;28;19931;-63
2021/03/09 15:39:08;;;;;;;;;;;18.20;99.90;;;17.66;51.77;100821.81;5115940;28;19923;-64
2021/03/09 15:41:35;;;;;;;;;;;18.20;99.90;;;17.38;50.76;100829.00;5115797;28;19928;-62
2021/03/09 15:44:03;;;;;;;;;;;17.90;99.90;;;17.16;50.36;100829.31;5115908;28;19927;-63